Terminal Aerodrome Forecast
Issued by NWS Paducah, KY

Home | Current Version | Previous Version | Graphics & Text | Print | Product List | Glossary On
Versions: 1 2 3 4 5 6 7 8 9 10 11 12 13 14 15
000
FTUS43 KPAH 171123
TAFEVV
TAF
KEVV 171123Z 1712/1812 20004KT P6SM OVC090
     FM171900 19004KT P6SM VCSH OVC030
     FM172300 17004KT P6SM OVC015
     FM180800 VRB03KT P6SM -DZ OVC008=

USA.gov is the U.S. government's official web portal to all federal, state and local government web resources and services.